| time (UTC) | temp F | wind direction | speed knots | gust knots | rain 1hr in | rain 24hr in | rain mn in | humidity % | barometer mb |
| 20260507154502 | 61 | 360 | 9.6 | 15.6 | 0.00 | 0.00 | 0.00 | 38 | 1015.4 |
| 20260507153101 | 61 | 360 | 11.3 | 16.5 | 0.00 | 0.00 | 0.00 | 38 | 1015.5 |
| 20260507151559 | 60 | 360 | 7.8 | 13.9 | 0.00 | 0.00 | 0.00 | 41 | 1015.4 |
| 20260507150057 | 59 | 360 | 6.1 | 13.0 | 0.00 | 0.00 | 0.00 | 43 | 1015.4 |
| 20260507144551 | 58 | 360 | 7.0 | 15.6 | 0.00 | 0.00 | 0.00 | 46 | 1015.4 |
| 20260507143046 | 58 | 360 | 7.8 | 16.5 | 0.00 | 0.00 | 0.00 | 48 | 1015.2 |
| 20260507141550 | 56 | 360 | 4.3 | 11.3 | 0.00 | 0.00 | 0.00 | 51 | 1015.2 |
| 20260507140039 | 57 | 360 | 7.0 | 12.2 | 0.00 | 0.00 | 0.00 | 51 | 1015.0 |
| 20260507134536 | 57 | 360 | 3.5 | 11.3 | 0.00 | 0.00 | 0.00 | 51 | 1014.8 |
| 20260507133035 | 57 | 360 | 4.3 | 10.4 | 0.00 | 0.00 | 0.00 | 52 | 1015.1 |
| 20260507131536 | 57 | 360 | 2.6 | 9.6 | 0.00 | 0.00 | 0.00 | 54 | 1015.0 |
| 20260507130027 | 57 | 360 | 7.0 | 15.6 | 0.00 | 0.00 | 0.00 | 52 | 1014.7 |
| 20260507124524 | 57 | 360 | 8.7 | 18.2 | 0.00 | 0.00 | 0.00 | 52 | 1014.6 |
| 20260507123024 | 57 | 360 | 7.8 | 14.8 | 0.00 | 0.00 | 0.00 | 51 | 1014.6 |
| 20260507121523 | 58 | 360 | 7.0 | 14.8 | 0.00 | 0.00 | 0.00 | 51 | 1014.7 |
| 20260507120037 | 58 | 360 | 7.8 | 13.9 | 0.00 | 0.00 | 0.00 | 52 | 1014.7 |
| 20260507114520 | 57 | 360 | 7.0 | 13.0 | 0.00 | 0.00 | 0.00 | 54 | 1014.6 |
| 20260507113035 | 57 | 360 | 9.6 | 17.4 | 0.00 | 0.00 | 0.00 | 55 | 1014.5 |
| 20260507111517 | 58 | 360 | 10.4 | 17.4 | 0.00 | 0.00 | 0.00 | 55 | 1014.4 |
| 20260507110015 | 58 | 360 | 9.6 | 20.0 | 0.00 | 0.00 | 0.00 | 55 | 1014.5 |
| 20260507104514 | 59 | 360 | 10.4 | 17.4 | 0.00 | 0.00 | 0.00 | 54 | 1014.7 |
| 20260507103009 | 59 | 360 | 7.8 | 17.4 | 0.00 | 0.00 | 0.00 | 54 | 1014.9 |
| 20260507101507 | 60 | 360 | 8.7 | 19.1 | 0.00 | 0.00 | 0.00 | 53 | 1014.9 |
| 20260507100003 | 60 | 360 | 7.0 | 18.2 | 0.00 | 0.00 | 0.00 | 52 | 1014.7 |
| 20260507094501 | 61 | 360 | 12.2 | 20.9 | 0.00 | 0.00 | 0.00 | 51 | 1015.1 |
| 20260507093059 | 60 | 360 | 6.1 | 13.0 | 0.00 | 0.00 | 0.00 | 52 | 1015.0 |
| 20260507091555 | 61 | 360 | 7.8 | 14.8 | 0.00 | 0.00 | 0.00 | 50 | 1015.0 |
| 20260507090055 | 61 | 360 | 7.8 | 14.8 | 0.00 | 0.00 | 0.00 | 49 | 1014.8 |
| 20260507084553 | 62 | 360 | 12.2 | 18.2 | 0.00 | 0.00 | 0.00 | 49 | 1014.5 |
| 20260507083048 | 62 | 360 | 13.9 | 21.7 | 0.00 | 0.00 | 0.00 | 48 | 1014.4 |
| 20260507081548 | 63 | 360 | 14.8 | 26.9 | 0.00 | 0.00 | 0.00 | 47 | 1014.0 |
| 20260507080043 | 63 | 360 | 13.9 | 26.1 | 0.00 | 0.00 | 0.00 | 47 | 1014.1 |
| 20260507074542 | 63 | 360 | 12.2 | 23.5 | 0.00 | 0.00 | 0.00 | 47 | 1014.0 |
| 20260507073043 | 63 | 360 | 10.4 | 19.1 | 0.00 | 0.00 | 0.00 | 48 | 1014.1 |
| 20260507071537 | 64 | 360 | 12.2 | 19.1 | 0.00 | 0.00 | 0.00 | 47 | 1014.2 |
| 20260507070039 | 63 | 360 | 9.6 | 20.9 | 0.00 | 0.00 | 0.00 | 48 | 1014.4 |
| 20260507064542 | 63 | 360 | 9.6 | 16.5 | 0.00 | 0.00 | 0.00 | 48 | 1014.3 |
| 20260507063040 | 63 | 360 | 1.7 | 5.2 | 0.00 | 0.00 | 0.00 | 47 | 1014.4 |
| 20260507061537 | 64 | 360 | 4.3 | 15.6 | 0.00 | 0.00 | 0.00 | 45 | 1014.1 |
| 20260507060030 | 65 | 360 | 7.8 | 21.7 | 0.00 | 0.00 | 0.00 | 44 | 1013.6 |
| 20260507054530 | 65 | 360 | 13.0 | 21.7 | 0.00 | 0.00 | 0.00 | 43 | 1013.5 |
| 20260507053034 | 65 | 360 | 12.2 | 24.3 | 0.00 | 0.00 | 0.00 | 43 | 1013.5 |
| 20260507051529 | 65 | 360 | 13.0 | 27.8 | 0.00 | 0.00 | 0.00 | 43 | 1013.7 |
| 20260507050032 | 66 | 360 | 14.8 | 26.9 | 0.00 | 0.00 | 0.00 | 42 | 1013.8 |
| 20260507044528 | 66 | 360 | 14.8 | 28.7 | 0.00 | 0.00 | 0.00 | 41 | 1013.8 |
| 20260507043031 | 67 | 360 | 11.3 | 23.5 | 0.00 | 0.00 | 0.00 | 40 | 1013.7 |
| 20260507041531 | 67 | 360 | 5.2 | 22.6 | 0.00 | 0.00 | 0.00 | 40 | 1013.2 |
| 20260507040026 | 67 | 360 | 13.9 | 22.6 | 0.00 | 0.00 | 0.00 | 39 | 1013.1 |
| 20260507034532 | 68 | 360 | 7.0 | 17.4 | 0.00 | 0.00 | 0.00 | 39 | 1012.9 |
| 20260507033025 | 68 | 360 | 8.7 | 18.2 | 0.00 | 0.00 | 0.00 | 39 | 1012.8 |
| 20260507031524 | 68 | 360 | 10.4 | 20.9 | 0.00 | 0.00 | 0.00 | 38 | 1012.6 |
| 20260507030024 | 69 | 360 | 7.0 | 11.3 | 0.00 | 0.00 | 0.00 | 36 | 1012.9 |
| 20260507024523 | 70 | 360 | 7.0 | 18.2 | 0.00 | 0.00 | 0.00 | 36 | 1012.8 |
| 20260507023022 | 70 | 360 | 9.6 | 18.2 | 0.00 | 0.00 | 0.00 | 35 | 1012.4 |
| 20260507021522 | 71 | 360 | 9.6 | 17.4 | 0.00 | 0.00 | 0.00 | 35 | 1012.3 |
| 20260507020021 | 72 | 360 | 12.2 | 20.9 | 0.00 | 0.00 | 0.00 | 33 | 1011.9 |
| 20260507014524 | 73 | 360 | 9.6 | 17.4 | 0.00 | 0.00 | 0.00 | 32 | 1012.0 |
| 20260507013019 | 74 | 360 | 6.1 | 18.2 | 0.00 | 0.00 | 0.00 | 32 | 1012.1 |
| 20260507011518 | 75 | 360 | 5.2 | 12.2 | 0.00 | 0.00 | 0.00 | 31 | 1012.3 |
| 20260507010029 | 75 | 360 | 12.2 | 22.6 | 0.00 | 0.00 | 0.00 | 30 | 1012.4 |
| 20260507004517 | 76 | 360 | 14.8 | 24.3 | 0.00 | 0.00 | 0.00 | 29 | 1012.1 |
| 20260507003016 | 77 | 360 | 14.8 | 21.7 | 0.00 | 0.00 | 0.00 | 29 | 1011.8 |
| 20260507001516 | 77 | 360 | 13.9 | 23.5 | 0.00 | 0.00 | 0.00 | 28 | 1011.6 |
| 20260507000015 | 77 | 360 | 13.0 | 22.6 | 0.00 | 0.00 | 0.00 | 28 | 1011.4 |
| 20260506234532 | 78 | 360 | 15.6 | 26.1 | 0.00 | 0.00 | 0.00 | 28 | 1011.3 |
| 20260506233014 | 78 | 360 | 14.8 | 25.2 | 0.00 | 0.00 | 0.00 | 27 | 1011.1 |
| 20260506231513 | 79 | 360 | 14.8 | 25.2 | 0.00 | 0.00 | 0.00 | 26 | 1011.0 |
| 20260506230010 | 79 | 360 | 14.8 | 24.3 | 0.00 | 0.00 | 0.00 | 26 | 1011.1 |
| 20260506224522 | 78 | 360 | 14.8 | 29.5 | 0.00 | 0.00 | 0.00 | 27 | 1011.3 |
| 20260506223006 | 78 | 360 | 15.6 | 26.1 | 0.00 | 0.00 | 0.00 | 28 | 1011.5 |
| 20260506221505 | 78 | 360 | 14.8 | 28.7 | 0.00 | 0.00 | 0.00 | 29 | 1011.5 |
| 20260506220003 | 77 | 360 | 15.6 | 28.7 | 0.00 | 0.00 | 0.00 | 30 | 1011.6 |
| 20260506214559 | 78 | 360 | 14.8 | 25.2 | 0.00 | 0.00 | 0.00 | 30 | 1011.8 |
| 20260506213055 | 78 | 360 | 13.9 | 24.3 | 0.00 | 0.00 | 0.00 | 30 | 1011.9 |
| 20260506211556 | 77 | 360 | 14.8 | 21.7 | 0.00 | 0.00 | 0.00 | 31 | 1011.9 |
| 20260506210050 | 77 | 360 | 11.3 | 22.6 | 0.00 | 0.00 | 0.00 | 32 | 1012.2 |
| 20260506204548 | 76 | 360 | 13.0 | 22.6 | 0.00 | 0.00 | 0.00 | 33 | 1012.4 |
| 20260506203047 | 76 | 360 | 16.5 | 23.5 | 0.00 | 0.00 | 0.00 | 32 | 1012.3 |
| 20260506201544 | 77 | 360 | 13.0 | 22.6 | 0.00 | 0.00 | 0.00 | 34 | 1012.2 |
| 20260506200042 | 76 | 360 | 11.3 | 20.9 | 0.00 | 0.00 | 0.00 | 34 | 1012.1 |
| 20260506194543 | 76 | 360 | 13.0 | 20.9 | 0.00 | 0.00 | 0.00 | 35 | 1012.4 |
| 20260506193035 | 75 | 360 | 13.0 | 22.6 | 0.00 | 0.00 | 0.00 | 35 | 1012.8 |
| 20260506191532 | 74 | 360 | 14.8 | 23.5 | 0.00 | 0.00 | 0.00 | 34 | 1012.8 |
| 20260506190030 | 74 | 360 | 13.0 | 21.7 | 0.00 | 0.00 | 0.00 | 36 | 1013.0 |
| 20260506184529 | 73 | 360 | 9.6 | 15.6 | 0.00 | 0.00 | 0.00 | 37 | 1013.1 |
| 20260506183026 | 73 | 360 | 10.4 | 19.1 | 0.00 | 0.00 | 0.00 | 38 | 1013.3 |
| 20260506181521 | 72 | 360 | 7.8 | 16.5 | 0.00 | 0.00 | 0.00 | 39 | 1013.4 |
| 20260506180018 | 71 | 360 | 10.4 | 17.4 | 0.00 | 0.00 | 0.00 | 40 | 1013.4 |
| 20260506174513 | 71 | 360 | 7.8 | 15.6 | 0.00 | 0.00 | 0.00 | 40 | 1013.6 |
| 20260506173009 | 70 | 360 | 8.7 | 20.0 | 0.00 | 0.00 | 0.00 | 42 | 1013.5 |
| 20260506171504 | 69 | 360 | 10.4 | 21.7 | 0.00 | 0.00 | 0.00 | 43 | 1013.9 |
| 20260506170110 | 69 | 360 | 13.0 | 20.0 | 0.00 | 0.00 | 0.00 | 43 | 1013.9 |
| 20260506170001 | 69 | 360 | 12.2 | 20.0 | 0.00 | 0.00 | 0.00 | 43 | 1014.0 |
| 20260506164557 | 68 | 360 | 11.3 | 20.9 | 0.00 | 0.00 | 0.00 | 45 | 1014.0 |
| 20260506163052 | 67 | 360 | 13.9 | 22.6 | 0.00 | 0.00 | 0.00 | 46 | 1014.0 |
| 20260506161549 | 67 | 360 | 12.2 | 20.0 | 0.00 | 0.00 | 0.00 | 46 | 1013.9 |
| 20260506160057 | 66 | 360 | 11.3 | 20.0 | 0.00 | 0.00 | 0.00 | 46 | 1014.0 |